createdAt,value
2018-10-09T00:00:00.137Z,0.00
2018-10-09T00:01:00.323Z,0.00
2018-10-09T00:02:00.165Z,0.00
2018-10-09T00:03:00.304Z,0.00
2018-10-09T00:04:00.202Z,0.00
2018-10-09T00:05:00.329Z,0.00
2018-10-09T00:06:00.226Z,0.00
2018-10-09T00:07:00.386Z,0.00
2018-10-09T00:08:00.259Z,0.00
2018-10-09T00:09:00.273Z,0.00
2018-10-09T00:10:00.305Z,0.00
2018-10-09T00:11:00.302Z,0.00
2018-10-09T00:12:00.455Z,0.00
2018-10-09T00:13:00.453Z,0.00
2018-10-09T00:14:00.337Z,0.00
2018-10-09T00:15:00.487Z,0.00
2018-10-09T00:16:00.369Z,0.00
2018-10-09T00:17:00.542Z,0.00
2018-10-09T00:18:00.401Z,0.00
2018-10-09T00:19:00.544Z,0.00
2018-10-09T00:20:00.555Z,0.00
2018-10-09T00:21:00.571Z,0.00
2018-10-09T00:22:00.603Z,0.00
2018-10-09T00:23:00.603Z,0.00
2018-10-09T00:24:00.488Z,0.00
2018-10-09T00:25:00.507Z,0.00
2018-10-09T00:26:00.561Z,0.00
2018-10-09T00:27:00.698Z,0.00
2018-10-09T00:28:00.675Z,0.00
2018-10-09T00:29:00.565Z,0.00
2018-10-09T00:30:00.702Z,0.00
2018-10-09T00:31:00.593Z,0.00
2018-10-09T00:32:00.792Z,0.00
2018-10-09T00:33:00.639Z,0.00
2018-10-09T00:34:00.645Z,0.00
2018-10-09T00:35:00.775Z,0.00
2018-10-09T00:36:00.665Z,0.00
2018-10-09T00:37:00.690Z,0.00
2018-10-09T00:38:00.850Z,0.00
2018-10-09T00:39:00.713Z,0.00
2018-10-09T00:40:00.723Z,0.00
2018-10-09T00:41:00.749Z,0.00
2018-10-09T00:42:00.756Z,0.00
2018-10-09T00:43:00.952Z,0.00
2018-10-09T00:44:00.794Z,0.00
2018-10-09T00:45:00.816Z,0.00
2018-10-09T00:46:00.828Z,0.00
2018-10-09T00:47:00.828Z,0.00
2018-10-09T00:48:01.057Z,0.00
2018-10-09T00:49:00.902Z,0.00
2018-10-09T00:50:00.894Z,0.00
2018-10-09T00:51:01.014Z,0.00
2018-10-09T00:52:00.906Z,0.00
2018-10-09T00:53:01.089Z,0.00
2018-10-09T00:54:01.061Z,0.00
2018-10-09T00:55:00.951Z,0.00
2018-10-09T00:56:00.961Z,0.00
2018-10-09T00:57:00.981Z,0.00
2018-10-09T00:58:01.146Z,0.00
2018-10-09T00:59:01.004Z,0.00
2018-10-09T01:00:01.022Z,0.00
2018-10-09T01:01:01.053Z,0.00
2018-10-09T01:02:01.093Z,0.00
2018-10-09T01:03:01.207Z,0.00
2018-10-09T01:04:01.084Z,0.00
2018-10-09T01:05:01.101Z,0.00
2018-10-09T01:06:01.112Z,0.00
2018-10-09T01:07:01.129Z,0.00
2018-10-09T01:08:01.305Z,0.00
2018-10-09T01:09:01.177Z,0.00
2018-10-09T01:10:01.186Z,0.00
2018-10-09T01:11:01.190Z,0.00
2018-10-09T01:12:01.205Z,0.00
2018-10-09T01:13:01.370Z,0.00
2018-10-09T01:14:01.276Z,0.00
2018-10-09T01:15:01.244Z,0.00
2018-10-09T01:16:01.287Z,0.00
2018-10-09T01:17:01.406Z,0.00
2018-10-09T01:18:01.567Z,0.00
2018-10-09T01:19:01.307Z,0.00
2018-10-09T01:20:01.446Z,0.00
2018-10-09T01:21:01.329Z,0.00
2018-10-09T01:22:01.352Z,0.00
2018-10-09T01:23:01.408Z,0.00
2018-10-09T01:24:01.396Z,0.00
2018-10-09T01:25:01.522Z,0.00
2018-10-09T01:26:01.537Z,0.00
2018-10-09T01:27:01.571Z,0.00
2018-10-09T01:28:01.480Z,0.00
2018-10-09T01:29:01.457Z,0.00
2018-10-09T01:30:01.476Z,0.00
2018-10-09T01:31:01.500Z,0.00
2018-10-09T01:32:01.598Z,0.00
2018-10-09T01:33:01.505Z,0.00
2018-10-09T01:34:01.656Z,0.00
2018-10-09T01:35:01.669Z,0.00
2018-10-09T01:36:01.689Z,0.00
2018-10-09T01:37:01.677Z,0.00
2018-10-09T01:38:01.720Z,0.00
2018-10-09T01:39:01.733Z,0.00
2018-10-09T01:40:01.752Z,0.00
2018-10-09T01:41:01.756Z,0.00
2018-10-09T01:42:01.926Z,0.00
2018-10-09T01:43:01.673Z,0.00
2018-10-09T01:44:01.808Z,0.00
2018-10-09T01:45:01.688Z,0.00
2018-10-09T01:46:01.709Z,0.00
2018-10-09T01:47:01.872Z,0.00
2018-10-09T01:48:01.863Z,0.00
2018-10-09T01:49:01.741Z,0.00
2018-10-09T01:50:01.776Z,0.00
2018-10-09T01:51:01.794Z,0.00
2018-10-09T01:52:01.843Z,0.00
2018-10-09T01:53:01.940Z,0.00
2018-10-09T01:54:01.828Z,0.00
2018-10-09T01:55:01.972Z,0.00
2018-10-09T01:56:01.865Z,0.00
2018-10-09T01:57:02.144Z,0.00
2018-10-09T01:58:01.903Z,0.00
2018-10-09T01:59:01.901Z,0.00
2018-10-09T02:00:01.920Z,0.00
2018-10-09T02:01:01.942Z,0.00
2018-10-09T02:02:02.048Z,0.00
2018-10-09T02:03:02.121Z,0.00
2018-10-09T02:04:01.988Z,0.00
2018-10-09T02:05:02.010Z,0.00
2018-10-09T02:06:02.012Z,0.00
2018-10-09T02:07:02.297Z,0.00
2018-10-09T02:08:02.025Z,0.00
2018-10-09T02:09:02.177Z,0.00
2018-10-09T02:10:02.058Z,0.00
2018-10-09T02:11:02.080Z,0.00
2018-10-09T02:12:02.256Z,0.00
2018-10-09T02:13:02.232Z,0.00
2018-10-09T02:14:02.245Z,0.00
2018-10-09T02:15:02.135Z,0.00
2018-10-09T02:16:02.200Z,0.00
2018-10-09T02:17:02.282Z,0.00
2018-10-09T02:18:02.225Z,0.00
2018-10-09T02:19:02.210Z,0.00
2018-10-09T02:20:02.213Z,0.00
2018-10-09T02:21:02.349Z,0.00
2018-10-09T02:22:02.464Z,0.00
2018-10-09T02:23:02.258Z,0.00
2018-10-09T02:24:02.266Z,0.00
2018-10-09T02:25:02.280Z,0.00
2018-10-09T02:26:02.288Z,0.00
2018-10-09T02:27:02.463Z,0.00
2018-10-09T02:28:02.320Z,0.00
2018-10-09T02:29:02.470Z,0.00
2018-10-09T02:30:02.382Z,0.00
2018-10-09T02:31:02.384Z,0.00
2018-10-09T02:32:02.496Z,0.00
2018-10-09T02:33:02.522Z,0.00
2018-10-09T02:34:02.421Z,0.00
2018-10-09T02:35:02.485Z,0.00
2018-10-09T02:36:02.581Z,0.00
2018-10-09T02:37:02.733Z,0.00
2018-10-09T02:38:02.464Z,0.00
2018-10-09T02:39:02.473Z,0.00
2018-10-09T02:40:02.635Z,0.00
2018-10-09T02:41:02.522Z,0.00
2018-10-09T02:42:02.688Z,0.00
2018-10-09T02:43:02.543Z,0.00
2018-10-09T02:44:02.570Z,0.00
2018-10-09T02:45:02.566Z,0.00
2018-10-09T02:46:02.711Z,0.00
2018-10-09T02:47:02.742Z,0.00
2018-10-09T02:48:02.623Z,0.00
2018-10-09T02:49:02.754Z,0.00
2018-10-09T02:50:02.639Z,0.00
2018-10-09T02:51:02.658Z,0.00
2018-10-09T02:52:02.816Z,0.00
2018-10-09T02:53:02.693Z,0.00
2018-10-09T02:54:02.699Z,0.00
2018-10-09T02:55:02.723Z,0.00
2018-10-09T02:56:02.720Z,0.00
2018-10-09T02:57:03.010Z,0.00
2018-10-09T02:58:02.803Z,0.00
2018-10-09T02:59:02.888Z,0.00
2018-10-09T03:00:02.905Z,0.00
2018-10-09T03:01:02.787Z,0.00
2018-10-09T03:02:02.808Z,0.00
2018-10-09T03:03:02.969Z,0.00
2018-10-09T03:04:02.854Z,0.00
2018-10-09T03:05:02.992Z,0.00
2018-10-09T03:06:02.858Z,0.00
2018-10-09T03:07:02.881Z,0.00
2018-10-09T03:08:03.068Z,0.00
2018-10-09T03:09:02.916Z,0.00
2018-10-09T03:10:02.922Z,0.00
2018-10-09T03:11:02.932Z,0.00
2018-10-09T03:12:03.076Z,0.00
2018-10-09T03:19:03.171Z,0.00
2018-10-09T03:20:03.058Z,0.00
2018-10-09T03:21:03.084Z,0.00
2018-10-09T03:22:03.104Z,0.00
2018-10-09T03:23:03.153Z,0.00
2018-10-09T03:24:03.271Z,0.00
2018-10-09T03:25:03.141Z,0.00
2018-10-09T03:26:03.269Z,0.00
2018-10-09T03:27:03.160Z,0.00
2018-10-09T03:28:03.178Z,0.00
2018-10-09T03:29:03.288Z,0.00
2018-10-09T03:30:03.198Z,0.00
2018-10-09T03:31:03.212Z,0.00
2018-10-09T03:32:03.233Z,0.00
2018-10-09T03:33:03.248Z,0.00
2018-10-09T03:34:03.356Z,0.00
2018-10-09T03:35:03.260Z,0.00
2018-10-09T03:36:03.301Z,0.00
2018-10-09T03:37:03.425Z,0.00
2018-10-09T03:38:03.304Z,0.00
2018-10-09T03:39:03.483Z,0.00
2018-10-09T03:40:03.344Z,0.00
2018-10-09T03:41:03.350Z,0.00
2018-10-09T03:42:03.372Z,0.00
2018-10-09T03:43:03.511Z,0.00
2018-10-09T03:44:03.476Z,0.00
2018-10-09T03:48:03.458Z,0.00
2018-10-09T03:49:03.492Z,0.00
2018-10-09T03:50:03.490Z,0.00
2018-10-09T03:51:03.668Z,0.00
2018-10-09T03:52:03.572Z,0.00
2018-10-09T03:53:03.530Z,0.00
2018-10-09T03:54:03.561Z,0.00
2018-10-09T03:55:03.558Z,0.00
2018-10-09T03:56:03.776Z,0.00
2018-10-09T03:57:03.596Z,0.00
2018-10-09T03:58:03.589Z,0.00
2018-10-09T03:59:03.613Z,0.00
2018-10-09T04:00:03.631Z,0.00
2018-10-09T04:01:03.806Z,0.00
2018-10-09T04:02:03.666Z,0.00
2018-10-09T04:03:03.683Z,0.00
2018-10-09T04:04:03.681Z,0.00
2018-10-09T04:05:03.691Z,0.00
2018-10-09T04:06:03.818Z,0.00
2018-10-09T04:07:03.731Z,0.00
2018-10-09T04:08:03.768Z,0.00
2018-10-09T04:09:03.786Z,0.00
2018-10-09T04:10:03.766Z,0.00
2018-10-09T04:11:03.948Z,0.00
2018-10-09T04:12:03.809Z,0.00
2018-10-09T04:13:03.833Z,0.00
2018-10-09T04:14:03.853Z,0.00
2018-10-09T04:15:03.854Z,0.00
2018-10-09T04:16:03.918Z,0.00
2018-10-09T04:17:03.886Z,0.00
2018-10-09T04:18:03.884Z,0.00
2018-10-09T04:19:03.898Z,0.00
2018-10-09T04:20:03.909Z,0.00
2018-10-09T04:21:03.981Z,0.00
2018-10-09T04:22:03.965Z,0.00
2018-10-09T04:23:03.963Z,0.00
2018-10-09T04:24:03.999Z,0.00
2018-10-09T04:25:03.987Z,0.00
2018-10-09T04:26:04.148Z,0.00
2018-10-09T04:27:04.019Z,0.00
2018-10-09T04:28:04.030Z,0.00
2018-10-09T04:29:04.032Z,0.00
2018-10-09T04:30:04.055Z,0.00
2018-10-09T04:31:04.228Z,0.00
2018-10-09T04:32:04.083Z,0.00
2018-10-09T04:33:04.100Z,0.00
2018-10-09T04:36:04.240Z,0.00
2018-10-09T04:37:04.152Z,0.00
2018-10-09T04:38:04.178Z,0.00
2018-10-09T04:39:04.183Z,0.00
2018-10-09T04:40:04.198Z,0.00
2018-10-09T04:41:04.377Z,0.00
2018-10-09T04:42:04.224Z,0.00
2018-10-09T04:43:04.228Z,0.00
2018-10-09T04:44:04.247Z,0.00
2018-10-09T04:45:04.278Z,0.00
2018-10-09T04:46:04.420Z,0.00
2018-10-09T04:47:04.288Z,0.00
2018-10-09T04:48:04.327Z,0.00
2018-10-09T04:49:04.329Z,0.00
2018-10-09T04:50:04.335Z,0.00
2018-10-09T04:51:04.463Z,0.00
2018-10-09T04:52:04.349Z,0.00
2018-10-09T04:53:04.418Z,0.00
2018-10-09T04:54:04.403Z,0.00
2018-10-09T04:55:04.406Z,0.00
2018-10-09T04:56:04.608Z,0.00
2018-10-09T04:57:04.453Z,0.00
2018-10-09T04:58:04.501Z,0.00
2018-10-09T04:59:04.472Z,0.00
2018-10-09T05:00:04.479Z,0.00
2018-10-09T05:01:04.645Z,0.00
2018-10-09T05:02:04.526Z,0.00
2018-10-09T05:03:04.543Z,0.00
2018-10-09T05:04:04.522Z,0.00
2018-10-09T05:05:04.529Z,0.00
2018-10-09T05:06:04.601Z,0.00
2018-10-09T05:07:04.587Z,0.00
2018-10-09T05:08:04.591Z,0.00
2018-10-09T05:09:04.770Z,0.00
2018-10-09T05:12:04.639Z,0.00
2018-10-09T05:18:04.715Z,0.00
2018-10-09T05:19:04.729Z,0.00
2018-10-09T05:20:04.743Z,0.00
2018-10-09T05:21:04.785Z,0.00
2018-10-09T05:22:04.789Z,0.00
2018-10-09T05:23:04.921Z,0.00
2018-10-09T05:24:04.801Z,0.00
2018-10-09T05:25:04.824Z,0.00
2018-10-09T05:26:04.830Z,0.00
2018-10-09T05:27:04.842Z,0.00
2018-10-09T05:28:05.001Z,0.00
2018-10-09T05:29:04.894Z,0.00
2018-10-09T05:30:04.891Z,0.00
2018-10-09T05:31:04.917Z,0.00
2018-10-09T05:32:04.906Z,0.00
2018-10-09T05:33:04.983Z,0.00
2018-10-09T05:34:04.960Z,0.00
2018-10-09T05:35:04.970Z,0.00
2018-10-09T05:36:04.984Z,0.00
2018-10-09T05:37:05.101Z,0.00
2018-10-09T05:38:05.016Z,0.00
2018-10-09T05:39:05.037Z,0.00
2018-10-09T05:40:05.042Z,0.00
2018-10-09T05:41:05.046Z,0.00
2018-10-09T05:42:05.102Z,0.00
2018-10-09T05:43:05.084Z,0.00
2018-10-09T05:44:05.269Z,0.00
2018-10-09T05:45:05.104Z,0.00
2018-10-09T05:46:05.111Z,0.00
2018-10-09T05:47:05.120Z,0.00
2018-10-09T05:48:05.141Z,0.00
2018-10-09T05:49:05.327Z,0.00
2018-10-09T05:50:05.193Z,0.00
2018-10-09T05:51:05.194Z,0.00
2018-10-09T05:52:05.203Z,0.00
2018-10-09T05:53:05.216Z,0.00
2018-10-09T05:54:05.385Z,0.00
2018-10-09T05:55:05.236Z,0.00
2018-10-09T05:56:05.260Z,0.00
2018-10-09T05:57:05.283Z,0.00
2018-10-09T05:58:05.483Z,0.00
2018-10-09T05:59:05.459Z,0.00
2018-10-09T06:00:05.303Z,0.00
2018-10-09T06:01:05.330Z,0.00
2018-10-09T06:02:05.380Z,0.00
2018-10-09T06:03:05.356Z,0.00
2018-10-09T06:04:05.510Z,0.00
2018-10-09T06:05:05.380Z,0.00
2018-10-09T06:06:05.493Z,0.00
2018-10-09T06:07:05.406Z,0.00
2018-10-09T06:08:05.415Z,0.00
2018-10-09T06:09:05.602Z,0.00
2018-10-09T06:10:05.452Z,0.00
2018-10-09T06:11:05.465Z,0.00
2018-10-09T06:12:05.475Z,0.00
2018-10-09T06:13:05.486Z,0.00
2018-10-09T06:14:05.613Z,0.00
2018-10-09T06:15:05.536Z,0.00
2018-10-09T06:16:05.603Z,0.00
2018-10-09T06:17:05.571Z,0.00
2018-10-09T06:18:05.556Z,0.00
2018-10-09T06:19:05.774Z,0.00
2018-10-09T06:20:05.605Z,0.00
2018-10-09T06:21:05.613Z,0.00
2018-10-09T06:22:05.667Z,0.00
2018-10-09T06:23:05.641Z,0.00
2018-10-09T06:24:05.709Z,0.00
2018-10-09T06:25:05.677Z,0.00
2018-10-09T06:26:05.819Z,0.00
2018-10-09T06:27:05.690Z,0.00
2018-10-09T06:28:05.800Z,0.00
2018-10-09T06:29:05.707Z,0.00
2018-10-09T06:30:05.720Z,0.00
2018-10-09T06:31:05.899Z,0.00
2018-10-09T06:32:05.745Z,0.00
2018-10-09T06:33:05.794Z,0.00
2018-10-09T06:34:05.897Z,0.00
2018-10-09T06:35:05.813Z,0.00
2018-10-09T06:36:05.867Z,0.00
2018-10-09T06:37:05.825Z,0.00
2018-10-09T06:38:05.849Z,0.00
2018-10-09T06:39:06.007Z,0.00
2018-10-09T06:40:05.910Z,0.00
2018-10-09T06:41:05.893Z,0.00
2018-10-09T06:42:05.889Z,0.00
2018-10-09T06:44:05.974Z,0.00
2018-10-09T06:47:05.981Z,0.00
2018-10-09T06:51:06.088Z,0.00
2018-10-09T06:52:06.038Z,0.00
2018-10-09T06:53:06.165Z,0.00
2018-10-09T06:54:06.258Z,0.00
2018-10-09T06:55:06.072Z,0.00
2018-10-09T06:56:06.125Z,0.00
2018-10-09T06:57:06.107Z,0.00
2018-10-09T06:58:06.174Z,0.00
2018-10-09T06:59:06.333Z,0.00
2018-10-09T07:00:06.162Z,0.00
2018-10-09T07:01:06.180Z,0.00
2018-10-09T07:02:06.170Z,0.00
2018-10-09T07:03:06.207Z,0.00
2018-10-09T07:04:06.318Z,0.00
2018-10-09T07:05:06.220Z,0.00
2018-10-09T07:06:06.241Z,0.00
2018-10-09T07:07:06.257Z,0.00
2018-10-09T07:08:06.313Z,0.00
2018-10-09T07:09:06.447Z,0.00
2018-10-09T07:10:06.282Z,0.00
2018-10-09T07:11:06.374Z,0.00
2018-10-09T07:12:06.330Z,0.00
2018-10-09T07:13:06.331Z,0.00
2018-10-09T07:14:06.436Z,0.00
2018-10-09T07:15:06.390Z,0.00
2018-10-09T07:16:06.364Z,0.00
2018-10-09T07:17:06.567Z,0.00
2018-10-09T07:18:06.419Z,0.00
2018-10-09T07:19:06.439Z,0.00
2018-10-09T07:20:06.429Z,0.00
2018-10-09T07:21:06.451Z,0.00
2018-10-09T07:22:06.561Z,0.00
2018-10-09T07:23:06.477Z,0.00
2018-10-09T07:24:06.485Z,0.00
2018-10-09T07:27:06.594Z,0.00
2018-10-09T07:34:06.778Z,0.00
2018-10-09T07:36:06.681Z,0.00
2018-10-09T07:37:06.686Z,0.00
2018-10-09T07:38:06.699Z,0.00
2018-10-09T07:39:06.858Z,0.00
2018-10-09T07:40:06.720Z,0.00
2018-10-09T07:41:06.752Z,0.00
2018-10-09T07:42:06.753Z,0.00
2018-10-09T07:43:06.763Z,0.00
2018-10-09T07:44:07.059Z,0.00
2018-10-09T07:45:06.788Z,0.00
2018-10-09T07:46:06.810Z,0.00
2018-10-09T07:47:06.820Z,0.00
2018-10-09T07:48:06.838Z,0.00
2018-10-09T07:49:06.888Z,0.00
2018-10-09T07:50:06.897Z,0.00
2018-10-09T07:51:06.919Z,0.00
2018-10-09T07:52:06.890Z,0.00
2018-10-09T07:53:06.907Z,0.00
2018-10-09T07:54:07.045Z,0.00
2018-10-09T07:55:06.956Z,0.00
2018-10-09T07:56:06.950Z,0.00
2018-10-09T07:57:06.963Z,0.00
2018-10-09T07:58:06.981Z,0.00
2018-10-09T07:59:06.983Z,0.00
2018-10-09T08:00:07.104Z,0.00
2018-10-09T08:01:07.010Z,0.00
2018-10-09T08:02:07.024Z,0.00
2018-10-09T08:03:07.052Z,0.00
2018-10-09T08:04:07.061Z,0.00
2018-10-09T08:05:07.217Z,0.00
2018-10-09T08:06:07.066Z,0.00
2018-10-09T08:07:07.124Z,0.00
2018-10-09T08:08:07.120Z,0.00
2018-10-09T08:09:07.121Z,0.00
2018-10-09T08:10:07.184Z,0.00
2018-10-09T08:16:07.241Z,0.00
2018-10-09T08:17:07.441Z,0.00
2018-10-09T08:18:07.263Z,0.00
2018-10-09T08:22:07.462Z,0.00
2018-10-09T08:23:07.329Z,0.00
2018-10-09T08:24:07.323Z,4.00
2018-10-09T08:25:07.343Z,4.00
2018-10-09T08:26:07.374Z,4.00
2018-10-09T08:27:07.521Z,8.00
2018-10-09T08:28:07.541Z,8.00
2018-10-09T08:29:07.422Z,8.00
2018-10-09T08:30:07.436Z,12.00
2018-10-09T08:31:07.454Z,16.00
2018-10-09T08:32:07.519Z,20.00
2018-10-09T08:33:07.462Z,24.00
2018-10-09T08:34:07.621Z,28.00
2018-10-09T08:35:07.493Z,36.00
2018-10-09T08:36:07.492Z,44.00
2018-10-09T08:37:07.508Z,48.00
2018-10-09T08:38:07.532Z,56.00
2018-10-09T08:39:07.639Z,60.00
2018-10-09T08:40:07.591Z,68.00
2018-10-09T08:41:07.614Z,80.00
2018-10-09T08:42:07.588Z,88.00
2018-10-09T08:43:07.614Z,100.00
2018-10-09T08:44:07.721Z,108.00
2018-10-09T08:45:07.620Z,120.00
2018-10-09T08:46:07.719Z,132.00
2018-10-09T08:47:07.663Z,148.00
2018-10-09T08:48:07.665Z,160.00
2018-10-09T08:49:07.808Z,176.00
2018-10-09T08:50:07.742Z,196.00
2018-10-09T08:51:07.720Z,216.00
2018-10-09T08:52:07.819Z,244.00
2018-10-09T08:53:07.745Z,276.00
2018-10-09T08:54:07.912Z,320.00
2018-10-09T08:55:07.764Z,368.00
2018-10-09T08:56:07.780Z,412.00
2018-10-09T08:57:07.787Z,460.00
2018-10-09T08:58:07.804Z,508.00
2018-10-09T08:59:07.979Z,544.00
2018-10-09T09:00:07.847Z,572.00
2018-10-09T09:01:07.862Z,600.00
2018-10-09T09:02:07.846Z,640.00
2018-10-09T09:03:07.921Z,692.00
2018-10-09T09:04:08.030Z,748.00
2018-10-09T09:05:07.909Z,808.00
2018-10-09T09:06:07.921Z,864.00
2018-10-09T09:07:07.923Z,908.00
2018-10-09T09:08:07.958Z,928.00
2018-10-09T09:09:08.117Z,960.00
2018-10-09T09:10:07.966Z,1020.00
2018-10-09T09:11:08.001Z,1088.00
2018-10-09T09:12:08.014Z,1184.00
2018-10-09T09:13:08.030Z,1316.00
2018-10-09T09:14:08.226Z,1488.00
2018-10-09T09:15:08.106Z,1712.00
2018-10-09T09:16:08.051Z,1968.00
2018-10-09T09:17:08.076Z,2248.00
2018-10-09T09:18:08.093Z,2560.00
2018-10-09T09:19:08.208Z,2816.00
2018-10-09T09:20:08.129Z,3100.00
2018-10-09T09:21:08.163Z,3488.00
2018-10-09T09:22:08.142Z,3852.00
2018-10-09T09:23:08.163Z,4316.00
2018-10-09T09:24:08.272Z,4764.00
2018-10-09T09:25:08.225Z,5260.00
2018-10-09T09:26:08.246Z,5704.00
2018-10-09T09:27:08.381Z,6072.00
2018-10-09T09:28:08.241Z,6356.00
2018-10-09T09:29:08.338Z,6632.00
2018-10-09T09:30:08.265Z,6908.00
2018-10-09T09:31:08.272Z,7244.00
2018-10-09T09:32:08.282Z,7596.00
2018-10-09T09:33:08.409Z,8008.00
2018-10-09T09:34:08.320Z,8700.00
2018-10-09T09:35:08.316Z,9504.00
2018-10-09T09:36:08.350Z,10432.00
2018-10-09T09:37:08.370Z,11236.00
2018-10-09T09:38:08.484Z,11980.00
2018-10-09T09:39:08.497Z,12500.00
2018-10-09T09:40:08.400Z,12732.00
2018-10-09T09:41:08.434Z,12480.00
2018-10-09T09:42:08.453Z,12304.00
2018-10-09T09:43:08.499Z,11716.00
2018-10-09T09:44:08.457Z,11284.00
2018-10-09T09:45:08.631Z,10576.00
2018-10-09T09:46:08.556Z,9820.00
2018-10-09T09:47:08.491Z,9288.00
2018-10-09T09:48:08.524Z,9104.00
2018-10-09T09:49:08.553Z,8952.00
2018-10-09T09:50:08.664Z,8684.00
2018-10-09T09:51:08.560Z,7236.00
2018-10-09T09:52:08.664Z,7008.00
2018-10-09T09:53:08.596Z,7008.00
2018-10-09T09:54:08.620Z,7120.00
2018-10-09T09:55:08.623Z,7416.00
2018-10-09T09:56:08.746Z,7560.00
2018-10-09T09:57:08.652Z,7832.00
2018-10-09T09:58:08.904Z,7972.00
2018-10-09T09:59:08.868Z,7920.00
2018-10-09T10:00:08.744Z,7952.00
2018-10-09T10:01:08.823Z,8096.00
2018-10-09T10:02:08.725Z,8068.00
2018-10-09T10:03:08.752Z,7888.00
2018-10-09T10:04:08.775Z,7660.00
2018-10-09T10:05:08.786Z,7560.00
2018-10-09T10:06:08.897Z,7692.00
2018-10-09T10:07:08.796Z,7876.00
2018-10-09T10:08:08.830Z,8136.00
2018-10-09T10:09:08.844Z,8512.00
2018-10-09T10:10:08.858Z,9372.00
2018-10-09T10:11:09.012Z,8396.00
2018-10-09T10:12:08.880Z,8116.00
2018-10-09T10:13:08.900Z,8348.00
2018-10-09T10:14:08.944Z,7564.00
2018-10-09T10:15:08.947Z,7232.00
2018-10-09T10:16:09.071Z,7396.00
2018-10-09T10:17:08.977Z,7304.00
2018-10-09T10:18:08.986Z,7112.00
2018-10-09T10:19:09.009Z,6824.00
2018-10-09T10:20:09.004Z,6556.00
2018-10-09T10:21:09.166Z,6284.00
2018-10-09T10:22:09.043Z,6040.00
2018-10-09T10:23:09.101Z,5748.00
2018-10-09T10:24:09.082Z,5480.00
2018-10-09T10:25:09.100Z,5352.00
2018-10-09T10:26:09.096Z,5216.00
2018-10-09T10:27:09.127Z,5052.00
2018-10-09T10:28:09.183Z,4836.00
2018-10-09T10:29:13.435Z,4648.00
2018-10-09T10:30:09.174Z,4524.00
2018-10-09T10:31:09.180Z,4380.00
2018-10-09T10:32:09.262Z,4184.00
2018-10-09T10:33:09.237Z,4028.00
2018-10-09T10:34:09.378Z,3888.00
2018-10-09T10:35:09.264Z,3836.00
2018-10-09T10:36:09.273Z,3868.00
2018-10-09T10:37:09.297Z,3908.00
2018-10-09T10:38:09.304Z,3916.00
2018-10-09T10:39:09.425Z,3944.00
2018-10-09T10:40:09.339Z,4048.00
2018-10-09T10:41:09.336Z,4180.00
2018-10-09T10:42:09.423Z,4280.00
2018-10-09T10:43:09.416Z,4352.00
2018-10-09T10:44:09.426Z,4432.00
2018-10-09T10:45:09.419Z,4564.00
2018-10-09T10:46:09.421Z,4800.00
2018-10-09T10:47:09.447Z,5108.00
2018-10-09T10:48:09.464Z,5400.00
2018-10-09T10:49:09.643Z,5788.00
2018-10-09T10:50:09.471Z,6108.00
2018-10-09T10:51:09.511Z,6396.00
2018-10-09T10:52:09.571Z,6628.00
2018-10-09T10:53:09.539Z,6696.00
2018-10-09T10:54:09.617Z,6804.00
2018-10-09T10:55:09.547Z,6916.00
2018-10-09T10:56:09.614Z,7088.00
2018-10-09T10:57:09.577Z,6980.00
2018-10-09T10:58:09.605Z,6868.00
2018-10-09T10:59:09.720Z,6828.00
2018-10-09T11:00:09.640Z,7124.00
2018-10-09T11:01:09.711Z,7148.00
2018-10-09T11:02:09.675Z,7180.00
2018-10-09T11:03:09.690Z,7528.00
2018-10-09T11:04:09.839Z,7848.00
2018-10-09T11:05:09.721Z,8148.00
2018-10-09T11:06:09.725Z,8364.00
2018-10-09T11:07:09.767Z,8876.00
2018-10-09T11:08:09.832Z,9360.00
2018-10-09T11:09:09.919Z,10008.00
2018-10-09T11:10:09.812Z,10228.00
2018-10-09T11:11:09.829Z,11096.00
2018-10-09T11:12:09.829Z,11240.00
2018-10-09T11:13:09.864Z,11692.00
2018-10-09T11:14:09.954Z,12948.00
2018-10-09T11:15:09.891Z,13464.00
2018-10-09T11:16:09.883Z,12904.00
2018-10-09T11:17:09.968Z,13396.00
2018-10-09T11:18:09.954Z,15008.00
2018-10-09T11:19:10.064Z,15788.00
2018-10-09T11:20:09.968Z,15872.00
2018-10-09T11:21:10.111Z,15948.00
2018-10-09T11:22:10.006Z,17248.00
2018-10-09T11:23:10.016Z,17824.00
2018-10-09T11:24:10.091Z,17952.00
2018-10-09T11:25:10.056Z,18048.00
2018-10-09T11:26:10.080Z,17568.00
2018-10-09T11:27:10.100Z,17120.00
2018-10-09T11:28:10.113Z,16960.00
2018-10-09T11:29:10.228Z,17920.00
2018-10-09T11:30:10.159Z,18240.00
2018-10-09T11:31:10.169Z,17888.00
2018-10-09T11:32:10.190Z,17728.00
2018-10-09T11:33:10.210Z,19456.00
2018-10-09T11:34:10.351Z,20160.00
2018-10-09T11:35:10.267Z,18144.00
2018-10-09T11:36:10.264Z,18976.00
2018-10-09T11:37:10.273Z,21760.00
2018-10-09T11:38:10.317Z,21344.00
2018-10-09T11:39:10.378Z,21280.00
2018-10-09T11:40:10.333Z,20992.00
2018-10-09T11:41:10.352Z,19552.00
2018-10-09T11:42:10.378Z,22368.00
2018-10-09T11:43:10.443Z,21152.00
2018-10-09T11:44:10.397Z,23584.00
2018-10-09T11:45:10.445Z,31424.00
2018-10-09T11:46:10.429Z,28768.00
2018-10-09T11:47:10.467Z,25760.00
2018-10-09T11:48:10.579Z,25856.00
2018-10-09T11:49:10.489Z,26880.00
2018-10-09T11:50:10.503Z,25312.00
2018-10-09T11:51:10.556Z,26720.00
2018-10-09T11:52:10.572Z,30272.00
2018-10-09T11:53:10.685Z,28704.00
2018-10-09T11:54:10.592Z,28384.00
2018-10-09T11:55:10.615Z,29344.00
2018-10-09T11:56:10.628Z,35968.00
2018-10-09T11:57:10.644Z,36064.00
2018-10-09T11:58:10.762Z,39072.00
2018-10-09T11:59:10.776Z,117024.00
2018-10-09T12:00:10.720Z,60192.00
2018-10-09T12:01:10.733Z,140224.00
2018-10-09T12:02:10.761Z,65312.00
2018-10-09T12:03:10.887Z,94464.00
2018-10-09T12:04:10.790Z,74112.00
2018-10-09T12:05:10.825Z,80000.00
2018-10-09T12:06:10.822Z,108832.00
2018-10-09T12:07:10.832Z,114368.00
2018-10-09T12:08:11.002Z,123744.00
2018-10-09T12:09:10.888Z,203232.00
2018-10-09T12:10:10.908Z,103648.00
2018-10-09T12:11:10.919Z,35200.00
2018-10-09T12:12:10.953Z,68512.00
2018-10-09T12:13:11.090Z,78080.00
2018-10-09T12:14:11.014Z,31680.00
2018-10-09T12:15:11.032Z,43520.00
2018-10-09T12:16:11.055Z,65120.00
2018-10-09T12:17:11.058Z,119008.00
2018-10-09T12:18:11.280Z,113920.00
2018-10-09T12:19:11.107Z,108576.00
2018-10-09T12:20:11.144Z,41856.00
2018-10-09T12:21:11.153Z,36448.00
2018-10-09T12:22:11.170Z,27520.00
2018-10-09T12:23:11.290Z,77472.00
2018-10-09T12:24:11.235Z,43776.00
2018-10-09T12:25:11.241Z,17376.00
2018-10-09T12:26:11.275Z,51008.00
2018-10-09T12:27:11.379Z,121728.00
2018-10-09T12:28:11.364Z,82240.00
2018-10-09T12:29:11.347Z,29216.00
2018-10-09T12:30:11.358Z,65376.00
2018-10-09T12:31:11.478Z,28224.00
2018-10-09T12:32:11.405Z,29120.00
2018-10-09T12:33:11.422Z,19808.00
2018-10-09T12:34:11.459Z,20896.00
2018-10-09T12:35:11.466Z,38528.00
2018-10-09T12:36:11.708Z,97728.00
2018-10-09T12:37:11.520Z,38112.00
2018-10-09T12:38:11.549Z,20736.00
2018-10-09T12:39:11.611Z,61408.00
2018-10-09T12:40:11.585Z,47232.00
2018-10-09T12:41:11.727Z,20224.00
2018-10-09T12:42:11.625Z,108864.00
2018-10-09T12:43:11.675Z,70912.00
2018-10-09T12:44:11.699Z,32224.00
2018-10-09T12:45:11.709Z,24608.00
2018-10-09T12:46:11.825Z,832.00
2018-10-09T12:47:11.744Z,38816.00
2018-10-09T12:48:11.773Z,39072.00
2018-10-09T12:49:11.780Z,37312.00
2018-10-09T12:50:11.822Z,22240.00
2018-10-09T12:51:11.927Z,26240.00
2018-10-09T12:52:11.898Z,28416.00
2018-10-09T12:53:11.900Z,31200.00
2018-10-09T12:54:11.924Z,21376.00
2018-10-09T12:55:11.935Z,18816.00
2018-10-09T12:56:12.074Z,21376.00
2018-10-09T12:57:12.066Z,23616.00
2018-10-09T12:58:12.051Z,57216.00
2018-10-09T12:59:12.055Z,23520.00
2018-10-09T13:00:12.065Z,22176.00
2018-10-09T13:01:12.116Z,17760.00
2018-10-09T13:02:12.088Z,17600.00
2018-10-09T13:03:12.210Z,35264.00
2018-10-09T13:04:12.135Z,22976.00
2018-10-09T13:05:12.275Z,17632.00
2018-10-09T13:06:12.180Z,17216.00
2018-10-09T13:07:12.203Z,20480.00
2018-10-09T13:08:12.283Z,27488.00
2018-10-09T13:09:12.252Z,27744.00
2018-10-09T13:10:12.398Z,54688.00
2018-10-09T13:11:12.309Z,62272.00
2018-10-09T13:12:12.306Z,30592.00
2018-10-09T13:13:12.333Z,44416.00
2018-10-09T13:14:12.389Z,28480.00
2018-10-09T13:15:12.436Z,46880.00
2018-10-09T13:16:12.413Z,20096.00
2018-10-09T13:17:12.567Z,26304.00
2018-10-09T13:18:12.458Z,19552.00
2018-10-09T13:19:12.492Z,31040.00
2018-10-09T13:20:12.516Z,52128.00
2018-10-09T13:21:12.628Z,20704.00
2018-10-09T13:22:12.918Z,16736.00
2018-10-09T13:23:12.667Z,17664.00
2018-10-09T13:24:12.594Z,18080.00
2018-10-09T13:25:12.620Z,23072.00
2018-10-09T13:26:12.640Z,18912.00